Terminal Aerodrome Forecast
Issued by NWS Omaha/Valley, NE

Home | Current Version | Previous Version | Text Only | Print | Product List | Glossary On
Versions: 1 2 3 4 5 6 7 8 9 10 11 12 13
000
FTUS43 KOAX 010520
TAFLNK
TAF
KLNK 010520Z 0106/0206 14008KT P6SM BKN250
     FM011400 15012G19KT P6SM SCT250
     FM011600 16018G25KT P6SM SCT250
     FM020000 16013G20KT P6SM BKN200 WS015/21040KT=

USA.gov is the U.S. government's official web portal to all federal, state and local government web resources and services.